sensor_id;sensor_type;location;lat;lon;timestamp;P1;durP1;ratioP1;P2;durP2;ratioP2
85196;SDS011;75566;42.698;23.346;2024-02-23T00:02:08;13.05;;;7.60;;
85196;SDS011;75566;42.698;23.346;2024-02-23T00:04:33;17.23;;;8.02;;
85196;SDS011;75566;42.698;23.346;2024-02-23T00:06:59;14.60;;;7.28;;
85196;SDS011;75566;42.698;23.346;2024-02-23T00:09:24;13.20;;;7.13;;
85196;SDS011;75566;42.698;23.346;2024-02-23T00:11:50;11.40;;;6.25;;
85196;SDS011;75566;42.698;23.346;2024-02-23T00:14:15;9.35;;;5.80;;
85196;SDS011;75566;42.698;23.346;2024-02-23T00:16:45;10.30;;;6.10;;
85196;SDS011;75566;42.698;23.346;2024-02-23T00:19:10;15.55;;;6.75;;
85196;SDS011;75566;42.698;23.346;2024-02-23T00:21:39;13.00;;;7.25;;
85196;SDS011;75566;42.698;23.346;2024-02-23T00:24:07;11.93;;;6.97;;
85196;SDS011;75566;42.698;23.346;2024-02-23T00:26:33;14.35;;;7.18;;
85196;SDS011;75566;42.698;23.346;2024-02-23T00:28:58;9.00;;;6.03;;
85196;SDS011;75566;42.698;23.346;2024-02-23T00:31:24;11.55;;;6.28;;
85196;SDS011;75566;42.698;23.346;2024-02-23T00:33:50;9.65;;;6.00;;
85196;SDS011;75566;42.698;23.346;2024-02-23T00:36:16;11.57;;;7.10;;
85196;SDS011;75566;42.698;23.346;2024-02-23T00:38:42;13.63;;;6.65;;
85196;SDS011;75566;42.698;23.346;2024-02-23T00:41:07;9.70;;;5.85;;
85196;SDS011;75566;42.698;23.346;2024-02-23T00:43:39;10.32;;;6.00;;
85196;SDS011;75566;42.698;23.346;2024-02-23T00:46:06;12.65;;;6.38;;
85196;SDS011;75566;42.698;23.346;2024-02-23T00:48:32;8.77;;;5.85;;
85196;SDS011;75566;42.698;23.346;2024-02-23T00:50:58;7.53;;;5.00;;
85196;SDS011;75566;42.698;23.346;2024-02-23T00:53:23;10.50;;;5.75;;
85196;SDS011;75566;42.698;23.346;2024-02-23T00:55:49;11.70;;;6.32;;
85196;SDS011;75566;42.698;23.346;2024-02-23T00:58:14;10.88;;;6.65;;
85196;SDS011;75566;42.698;23.346;2024-02-23T01:00:41;11.40;;;6.40;;
85196;SDS011;75566;42.698;23.346;2024-02-23T01:03:06;9.27;;;5.78;;
85196;SDS011;75566;42.698;23.346;2024-02-23T01:05:32;12.50;;;6.07;;
85196;SDS011;75566;42.698;23.346;2024-02-23T01:07:57;10.90;;;6.55;;
85196;SDS011;75566;42.698;23.346;2024-02-23T01:10:23;12.40;;;6.55;;
85196;SDS011;75566;42.698;23.346;2024-02-23T01:12:49;10.38;;;6.15;;
85196;SDS011;75566;42.698;23.346;2024-02-23T01:15:14;12.00;;;6.63;;
85196;SDS011;75566;42.698;23.346;2024-02-23T01:17:40;10.27;;;6.90;;
85196;SDS011;75566;42.698;23.346;2024-02-23T01:20:05;11.00;;;5.80;;
85196;SDS011;75566;42.698;23.346;2024-02-23T01:22:31;12.20;;;6.50;;
85196;SDS011;75566;42.698;23.346;2024-02-23T01:24:57;11.68;;;6.40;;
85196;SDS011;75566;42.698;23.346;2024-02-23T01:27:22;10.38;;;5.85;;
85196;SDS011;75566;42.698;23.346;2024-02-23T01:29:47;11.95;;;6.28;;
85196;SDS011;75566;42.698;23.346;2024-02-23T01:32:13;12.50;;;6.18;;
85196;SDS011;75566;42.698;23.346;2024-02-23T01:34:39;11.52;;;6.57;;
85196;SDS011;75566;42.698;23.346;2024-02-23T01:37:04;13.75;;;6.35;;
85196;SDS011;75566;42.698;23.346;2024-02-23T01:39:30;15.38;;;7.03;;
85196;SDS011;75566;42.698;23.346;2024-02-23T01:41:55;9.82;;;6.38;;
85196;SDS011;75566;42.698;23.346;2024-02-23T01:44:21;13.02;;;6.90;;
85196;SDS011;75566;42.698;23.346;2024-02-23T01:46:46;13.25;;;6.65;;
85196;SDS011;75566;42.698;23.346;2024-02-23T01:49:12;12.18;;;6.28;;
85196;SDS011;75566;42.698;23.346;2024-02-23T01:51:39;16.38;;;7.30;;
85196;SDS011;75566;42.698;23.346;2024-02-23T01:54:04;9.88;;;6.45;;
85196;SDS011;75566;42.698;23.346;2024-02-23T01:56:31;10.82;;;6.90;;
85196;SDS011;75566;42.698;23.346;2024-02-23T01:58:59;11.40;;;6.50;;
85196;SDS011;75566;42.698;23.346;2024-02-23T02:01:25;11.02;;;5.85;;
85196;SDS011;75566;42.698;23.346;2024-02-23T02:03:51;12.65;;;6.03;;
85196;SDS011;75566;42.698;23.346;2024-02-23T02:06:16;10.80;;;6.70;;
85196;SDS011;75566;42.698;23.346;2024-02-23T02:08:42;10.85;;;6.40;;
85196;SDS011;75566;42.698;23.346;2024-02-23T02:11:08;11.68;;;6.43;;
85196;SDS011;75566;42.698;23.346;2024-02-23T02:13:33;11.18;;;7.20;;
85196;SDS011;75566;42.698;23.346;2024-02-23T02:15:59;12.65;;;6.35;;
85196;SDS011;75566;42.698;23.346;2024-02-23T02:18:26;10.77;;;6.40;;
85196;SDS011;75566;42.698;23.346;2024-02-23T02:20:52;10.10;;;5.60;;
85196;SDS011;75566;42.698;23.346;2024-02-23T02:23:19;13.20;;;6.82;;
85196;SDS011;75566;42.698;23.346;2024-02-23T02:25:45;13.13;;;6.88;;
85196;SDS011;75566;42.698;23.346;2024-02-23T02:28:23;10.13;;;5.75;;
85196;SDS011;75566;42.698;23.346;2024-02-23T02:30:49;11.82;;;6.30;;
85196;SDS011;75566;42.698;23.346;2024-02-23T02:33:16;9.40;;;5.68;;
85196;SDS011;75566;42.698;23.346;2024-02-23T02:35:41;12.07;;;6.45;;
85196;SDS011;75566;42.698;23.346;2024-02-23T02:38:07;12.65;;;7.05;;
85196;SDS011;75566;42.698;23.346;2024-02-23T02:40:32;11.18;;;6.43;;
85196;SDS011;75566;42.698;23.346;2024-02-23T02:42:58;11.07;;;6.75;;
85196;SDS011;75566;42.698;23.346;2024-02-23T02:45:23;10.13;;;6.25;;
85196;SDS011;75566;42.698;23.346;2024-02-23T02:47:49;12.65;;;6.68;;
85196;SDS011;75566;42.698;23.346;2024-02-23T02:50:15;11.00;;;6.53;;
85196;SDS011;75566;42.698;23.346;2024-02-23T02:52:40;13.73;;;7.25;;
85196;SDS011;75566;42.698;23.346;2024-02-23T02:55:06;10.60;;;6.70;;
85196;SDS011;75566;42.698;23.346;2024-02-23T02:57:32;13.05;;;6.75;;
85196;SDS011;75566;42.698;23.346;2024-02-23T02:59:57;11.60;;;6.97;;
85196;SDS011;75566;42.698;23.346;2024-02-23T03:02:23;11.82;;;6.05;;
85196;SDS011;75566;42.698;23.346;2024-02-23T03:04:49;11.75;;;6.70;;
85196;SDS011;75566;42.698;23.346;2024-02-23T03:07:15;11.52;;;6.55;;
85196;SDS011;75566;42.698;23.346;2024-02-23T03:09:41;8.73;;;5.65;;
85196;SDS011;75566;42.698;23.346;2024-02-23T03:12:07;9.90;;;6.15;;
85196;SDS011;75566;42.698;23.346;2024-02-23T03:14:33;11.95;;;6.78;;
85196;SDS011;75566;42.698;23.346;2024-02-23T03:16:59;13.07;;;6.82;;
85196;SDS011;75566;42.698;23.346;2024-02-23T03:19:24;12.32;;;7.10;;
85196;SDS011;75566;42.698;23.346;2024-02-23T03:21:51;12.77;;;6.82;;
85196;SDS011;75566;42.698;23.346;2024-02-23T03:24:16;10.50;;;6.03;;
85196;SDS011;75566;42.698;23.346;2024-02-23T03:26:42;11.73;;;7.30;;
85196;SDS011;75566;42.698;23.346;2024-02-23T03:29:09;14.05;;;7.63;;
85196;SDS011;75566;42.698;23.346;2024-02-23T03:31:34;11.45;;;6.78;;
85196;SDS011;75566;42.698;23.346;2024-02-23T03:34:00;12.52;;;6.53;;
85196;SDS011;75566;42.698;23.346;2024-02-23T03:36:27;12.20;;;6.45;;
85196;SDS011;75566;42.698;23.346;2024-02-23T03:38:52;13.77;;;6.90;;
85196;SDS011;75566;42.698;23.346;2024-02-23T03:41:18;12.27;;;6.25;;
85196;SDS011;75566;42.698;23.346;2024-02-23T03:43:43;10.70;;;5.90;;
85196;SDS011;75566;42.698;23.346;2024-02-23T03:46:09;11.55;;;6.07;;
85196;SDS011;75566;42.698;23.346;2024-02-23T03:48:36;13.18;;;6.30;;
85196;SDS011;75566;42.698;23.346;2024-02-23T03:51:03;11.73;;;5.78;;
85196;SDS011;75566;42.698;23.346;2024-02-23T03:53:30;11.13;;;5.68;;
85196;SDS011;75566;42.698;23.346;2024-02-23T03:55:56;10.55;;;6.38;;
85196;SDS011;75566;42.698;23.346;2024-02-23T03:58:22;12.90;;;7.00;;
85196;SDS011;75566;42.698;23.346;2024-02-23T04:00:48;10.65;;;6.43;;
85196;SDS011;75566;42.698;23.346;2024-02-23T04:03:13;10.27;;;6.28;;
85196;SDS011;75566;42.698;23.346;2024-02-23T04:05:39;11.35;;;7.05;;
85196;SDS011;75566;42.698;23.346;2024-02-23T04:08:04;11.18;;;6.20;;
85196;SDS011;75566;42.698;23.346;2024-02-23T04:10:30;8.95;;;6.63;;
85196;SDS011;75566;42.698;23.346;2024-02-23T04:12:55;12.55;;;6.82;;
85196;SDS011;75566;42.698;23.346;2024-02-23T04:15:21;11.60;;;6.13;;
85196;SDS011;75566;42.698;23.346;2024-02-23T04:17:47;11.38;;;6.40;;
85196;SDS011;75566;42.698;23.346;2024-02-23T04:20:13;10.68;;;6.70;;
85196;SDS011;75566;42.698;23.346;2024-02-23T04:22:38;10.70;;;6.22;;
85196;SDS011;75566;42.698;23.346;2024-02-23T04:25:04;11.43;;;7.65;;
85196;SDS011;75566;42.698;23.346;2024-02-23T04:27:30;11.68;;;7.30;;
85196;SDS011;75566;42.698;23.346;2024-02-23T04:29:56;12.05;;;7.30;;
85196;SDS011;75566;42.698;23.346;2024-02-23T04:32:21;18.92;;;7.18;;
85196;SDS011;75566;42.698;23.346;2024-02-23T04:34:47;14.82;;;6.70;;
85196;SDS011;75566;42.698;23.346;2024-02-23T04:37:12;12.27;;;6.85;;
85196;SDS011;75566;42.698;23.346;2024-02-23T04:39:38;16.80;;;6.28;;
85196;SDS011;75566;42.698;23.346;2024-02-23T04:42:06;12.90;;;7.53;;
85196;SDS011;75566;42.698;23.346;2024-02-23T04:44:33;15.93;;;7.47;;
85196;SDS011;75566;42.698;23.346;2024-02-23T04:46:59;13.38;;;7.60;;
85196;SDS011;75566;42.698;23.346;2024-02-23T04:49:25;14.38;;;7.85;;
85196;SDS011;75566;42.698;23.346;2024-02-23T04:51:50;11.80;;;7.55;;
85196;SDS011;75566;42.698;23.346;2024-02-23T04:54:16;11.60;;;7.50;;
85196;SDS011;75566;42.698;23.346;2024-02-23T04:56:41;14.48;;;7.15;;
85196;SDS011;75566;42.698;23.346;2024-02-23T04:59:07;14.68;;;7.72;;
85196;SDS011;75566;42.698;23.346;2024-02-23T05:01:35;13.50;;;7.57;;
85196;SDS011;75566;42.698;23.346;2024-02-23T05:06:28;16.38;;;9.60;;
85196;SDS011;75566;42.698;23.346;2024-02-23T05:08:54;14.80;;;8.32;;
85196;SDS011;75566;42.698;23.346;2024-02-23T05:11:19;14.02;;;8.07;;
85196;SDS011;75566;42.698;23.346;2024-02-23T05:13:45;12.30;;;7.00;;
85196;SDS011;75566;42.698;23.346;2024-02-23T05:16:10;13.00;;;7.38;;
85196;SDS011;75566;42.698;23.346;2024-02-23T05:18:38;15.25;;;8.52;;
85196;SDS011;75566;42.698;23.346;2024-02-23T05:21:04;16.77;;;8.10;;
85196;SDS011;75566;42.698;23.346;2024-02-23T05:23:30;19.88;;;7.80;;
85196;SDS011;75566;42.698;23.346;2024-02-23T05:25:55;20.92;;;7.68;;
85196;SDS011;75566;42.698;23.346;2024-02-23T05:28:21;10.27;;;6.88;;
85196;SDS011;75566;42.698;23.346;2024-02-23T05:30:46;11.23;;;7.45;;
85196;SDS011;75566;42.698;23.346;2024-02-23T05:33:12;19.33;;;8.38;;
85196;SDS011;75566;42.698;23.346;2024-02-23T05:35:37;19.00;;;8.02;;
85196;SDS011;75566;42.698;23.346;2024-02-23T05:38:03;14.35;;;7.97;;
85196;SDS011;75566;42.698;23.346;2024-02-23T05:40:31;14.30;;;8.10;;
85196;SDS011;75566;42.698;23.346;2024-02-23T05:42:57;14.40;;;7.45;;
85196;SDS011;75566;42.698;23.346;2024-02-23T05:45:23;19.75;;;8.88;;
85196;SDS011;75566;42.698;23.346;2024-02-23T05:47:48;16.75;;;9.30;;
85196;SDS011;75566;42.698;23.346;2024-02-23T05:50:14;17.80;;;9.20;;
85196;SDS011;75566;42.698;23.346;2024-02-23T05:52:40;17.20;;;8.40;;
85196;SDS011;75566;42.698;23.346;2024-02-23T05:55:06;15.27;;;8.60;;
85196;SDS011;75566;42.698;23.346;2024-02-23T05:57:32;15.32;;;8.98;;
85196;SDS011;75566;42.698;23.346;2024-02-23T05:59:58;15.10;;;8.23;;
85196;SDS011;75566;42.698;23.346;2024-02-23T06:02:23;15.75;;;8.68;;
85196;SDS011;75566;42.698;23.346;2024-02-23T06:04:49;17.08;;;8.10;;
85196;SDS011;75566;42.698;23.346;2024-02-23T06:07:14;15.90;;;8.50;;
85196;SDS011;75566;42.698;23.346;2024-02-23T06:09:43;19.55;;;9.00;;
85196;SDS011;75566;42.698;23.346;2024-02-23T06:12:09;17.38;;;8.38;;
85196;SDS011;75566;42.698;23.346;2024-02-23T06:14:35;19.58;;;8.82;;
85196;SDS011;75566;42.698;23.346;2024-02-23T06:17:00;19.83;;;9.45;;
85196;SDS011;75566;42.698;23.346;2024-02-23T06:19:26;14.80;;;8.75;;
85196;SDS011;75566;42.698;23.346;2024-02-23T06:21:52;17.23;;;8.80;;
85196;SDS011;75566;42.698;23.346;2024-02-23T06:24:17;18.02;;;8.88;;
85196;SDS011;75566;42.698;23.346;2024-02-23T06:26:43;15.95;;;8.88;;
85196;SDS011;75566;42.698;23.346;2024-02-23T06:29:10;19.08;;;9.63;;
85196;SDS011;75566;42.698;23.346;2024-02-23T06:31:38;19.05;;;10.00;;
85196;SDS011;75566;42.698;23.346;2024-02-23T06:34:04;19.75;;;9.80;;
85196;SDS011;75566;42.698;23.346;2024-02-23T06:36:30;20.80;;;10.55;;
85196;SDS011;75566;42.698;23.346;2024-02-23T06:38:55;15.75;;;9.45;;
85196;SDS011;75566;42.698;23.346;2024-02-23T06:41:21;17.60;;;9.23;;
85196;SDS011;75566;42.698;23.346;2024-02-23T06:43:47;15.32;;;8.93;;
85196;SDS011;75566;42.698;23.346;2024-02-23T06:46:12;15.95;;;8.80;;
85196;SDS011;75566;42.698;23.346;2024-02-23T06:48:37;19.02;;;9.40;;
85196;SDS011;75566;42.698;23.346;2024-02-23T06:51:04;18.80;;;10.45;;
85196;SDS011;75566;42.698;23.346;2024-02-23T06:53:30;17.42;;;8.77;;
85196;SDS011;75566;42.698;23.346;2024-02-23T06:55:56;16.13;;;8.35;;
85196;SDS011;75566;42.698;23.346;2024-02-23T06:58:21;13.45;;;7.95;;
85196;SDS011;75566;42.698;23.346;2024-02-23T07:00:47;15.45;;;9.02;;
85196;SDS011;75566;42.698;23.346;2024-02-23T07:03:13;20.00;;;9.07;;
85196;SDS011;75566;42.698;23.346;2024-02-23T07:05:39;20.52;;;9.60;;
85196;SDS011;75566;42.698;23.346;2024-02-23T07:08:07;18.88;;;8.30;;
85196;SDS011;75566;42.698;23.346;2024-02-23T07:10:33;17.10;;;9.43;;
85196;SDS011;75566;42.698;23.346;2024-02-23T07:12:59;24.17;;;12.88;;
85196;SDS011;75566;42.698;23.346;2024-02-23T07:15:24;22.48;;;10.68;;
85196;SDS011;75566;42.698;23.346;2024-02-23T07:17:51;19.50;;;10.15;;
85196;SDS011;75566;42.698;23.346;2024-02-23T07:20:17;22.08;;;12.35;;
85196;SDS011;75566;42.698;23.346;2024-02-23T07:22:43;26.98;;;14.52;;
85196;SDS011;75566;42.698;23.346;2024-02-23T07:25:10;20.45;;;12.55;;
85196;SDS011;75566;42.698;23.346;2024-02-23T07:27:35;22.15;;;12.55;;
85196;SDS011;75566;42.698;23.346;2024-02-23T07:30:01;21.10;;;11.95;;
85196;SDS011;75566;42.698;23.346;2024-02-23T07:32:28;20.98;;;11.20;;
85196;SDS011;75566;42.698;23.346;2024-02-23T07:34:54;23.98;;;13.00;;
85196;SDS011;75566;42.698;23.346;2024-02-23T07:37:20;25.45;;;13.05;;
85196;SDS011;75566;42.698;23.346;2024-02-23T07:39:46;18.67;;;11.98;;
85196;SDS011;75566;42.698;23.346;2024-02-23T07:42:12;20.95;;;12.10;;
85196;SDS011;75566;42.698;23.346;2024-02-23T07:44:39;18.73;;;10.93;;
85196;SDS011;75566;42.698;23.346;2024-02-23T07:47:05;19.70;;;11.23;;
85196;SDS011;75566;42.698;23.346;2024-02-23T07:49:31;15.73;;;11.02;;
85196;SDS011;75566;42.698;23.346;2024-02-23T07:51:56;19.05;;;11.18;;
85196;SDS011;75566;42.698;23.346;2024-02-23T07:54:22;18.15;;;11.10;;
85196;SDS011;75566;42.698;23.346;2024-02-23T07:56:47;17.50;;;11.40;;
85196;SDS011;75566;42.698;23.346;2024-02-23T07:59:13;25.15;;;11.82;;
85196;SDS011;75566;42.698;23.346;2024-02-23T08:01:38;15.60;;;10.43;;
85196;SDS011;75566;42.698;23.346;2024-02-23T08:04:05;18.10;;;10.98;;
85196;SDS011;75566;42.698;23.346;2024-02-23T08:06:30;16.30;;;10.48;;
85196;SDS011;75566;42.698;23.346;2024-02-23T08:08:56;22.33;;;11.25;;
85196;SDS011;75566;42.698;23.346;2024-02-23T08:11:21;16.02;;;10.32;;
85196;SDS011;75566;42.698;23.346;2024-02-23T08:13:47;16.67;;;9.52;;
85196;SDS011;75566;42.698;23.346;2024-02-23T08:16:12;17.15;;;9.13;;
85196;SDS011;75566;42.698;23.346;2024-02-23T08:18:38;14.73;;;8.77;;
85196;SDS011;75566;42.698;23.346;2024-02-23T08:21:03;17.52;;;10.15;;
85196;SDS011;75566;42.698;23.346;2024-02-23T08:23:31;17.75;;;10.38;;
85196;SDS011;75566;42.698;23.346;2024-02-23T08:25:56;19.40;;;10.98;;
85196;SDS011;75566;42.698;23.346;2024-02-23T08:28:23;23.83;;;12.02;;
85196;SDS011;75566;42.698;23.346;2024-02-23T08:30:49;22.02;;;11.18;;
85196;SDS011;75566;42.698;23.346;2024-02-23T08:33:15;22.52;;;11.18;;
85196;SDS011;75566;42.698;23.346;2024-02-23T08:35:40;20.45;;;10.88;;
85196;SDS011;75566;42.698;23.346;2024-02-23T08:38:06;23.80;;;11.10;;
85196;SDS011;75566;42.698;23.346;2024-02-23T08:40:32;17.92;;;9.70;;
85196;SDS011;75566;42.698;23.346;2024-02-23T08:42:57;23.67;;;10.27;;
85196;SDS011;75566;42.698;23.346;2024-02-23T08:45:23;14.30;;;8.10;;
85196;SDS011;75566;42.698;23.346;2024-02-23T08:47:48;123.65;;;46.65;;
85196;SDS011;75566;42.698;23.346;2024-02-23T08:50:14;15.75;;;8.75;;
85196;SDS011;75566;42.698;23.346;2024-02-23T08:52:39;16.25;;;9.10;;
85196;SDS011;75566;42.698;23.346;2024-02-23T08:55:06;17.20;;;9.25;;
85196;SDS011;75566;42.698;23.346;2024-02-23T08:57:32;14.77;;;8.60;;
85196;SDS011;75566;42.698;23.346;2024-02-23T08:59:57;17.02;;;8.93;;
85196;SDS011;75566;42.698;23.346;2024-02-23T09:02:23;13.43;;;8.75;;
85196;SDS011;75566;42.698;23.346;2024-02-23T09:04:51;16.13;;;9.02;;
85196;SDS011;75566;42.698;23.346;2024-02-23T09:07:17;13.40;;;7.80;;
85196;SDS011;75566;42.698;23.346;2024-02-23T09:09:46;11.88;;;8.65;;
85196;SDS011;75566;42.698;23.346;2024-02-23T09:12:13;14.95;;;8.57;;
85196;SDS011;75566;42.698;23.346;2024-02-23T09:14:41;17.00;;;7.75;;
85196;SDS011;75566;42.698;23.346;2024-02-23T09:17:08;11.45;;;7.35;;
85196;SDS011;75566;42.698;23.346;2024-02-23T09:19:35;11.27;;;6.82;;
85196;SDS011;75566;42.698;23.346;2024-02-23T09:22:01;12.48;;;6.78;;
85196;SDS011;75566;42.698;23.346;2024-02-23T09:24:27;10.30;;;5.55;;
85196;SDS011;75566;42.698;23.346;2024-02-23T09:26:53;8.73;;;5.45;;
85196;SDS011;75566;42.698;23.346;2024-02-23T09:29:18;17.80;;;8.93;;
85196;SDS011;75566;42.698;23.346;2024-02-23T09:31:44;10.05;;;6.03;;
85196;SDS011;75566;42.698;23.346;2024-02-23T09:34:10;8.57;;;5.95;;
85196;SDS011;75566;42.698;23.346;2024-02-23T09:36:35;8.93;;;5.18;;
85196;SDS011;75566;42.698;23.346;2024-02-23T09:39:01;10.43;;;4.75;;
85196;SDS011;75566;42.698;23.346;2024-02-23T09:41:27;9.20;;;4.45;;
85196;SDS011;75566;42.698;23.346;2024-02-23T09:43:53;7.18;;;5.03;;
85196;SDS011;75566;42.698;23.346;2024-02-23T09:46:21;6.78;;;4.50;;
85196;SDS011;75566;42.698;23.346;2024-02-23T09:48:47;7.43;;;4.50;;
85196;SDS011;75566;42.698;23.346;2024-02-23T09:51:13;6.07;;;4.70;;
85196;SDS011;75566;42.698;23.346;2024-02-23T09:53:40;6.15;;;4.00;;
85196;SDS011;75566;42.698;23.346;2024-02-23T09:56:07;7.20;;;4.85;;
85196;SDS011;75566;42.698;23.346;2024-02-23T09:58:34;5.95;;;4.50;;
85196;SDS011;75566;42.698;23.346;2024-02-23T10:01:04;10.73;;;4.85;;
85196;SDS011;75566;42.698;23.346;2024-02-23T10:03:29;7.28;;;4.53;;
85196;SDS011;75566;42.698;23.346;2024-02-23T10:05:56;5.55;;;4.03;;
85196;SDS011;75566;42.698;23.346;2024-02-23T10:08:22;5.40;;;4.15;;
85196;SDS011;75566;42.698;23.346;2024-02-23T10:10:47;5.97;;;4.13;;
85196;SDS011;75566;42.698;23.346;2024-02-23T10:13:18;9.65;;;4.68;;
85196;SDS011;75566;42.698;23.346;2024-02-23T10:15:46;6.70;;;4.32;;
85196;SDS011;75566;42.698;23.346;2024-02-23T10:18:12;5.53;;;3.55;;
85196;SDS011;75566;42.698;23.346;2024-02-23T10:20:38;10.05;;;4.10;;
85196;SDS011;75566;42.698;23.346;2024-02-23T10:23:04;8.52;;;4.60;;
85196;SDS011;75566;42.698;23.346;2024-02-23T10:25:30;10.70;;;5.68;;
85196;SDS011;75566;42.698;23.346;2024-02-23T10:27:58;6.18;;;4.25;;
85196;SDS011;75566;42.698;23.346;2024-02-23T10:30:26;5.78;;;3.65;;
85196;SDS011;75566;42.698;23.346;2024-02-23T10:32:55;4.75;;;3.65;;
85196;SDS011;75566;42.698;23.346;2024-02-23T10:35:21;6.43;;;3.72;;
85196;SDS011;75566;42.698;23.346;2024-02-23T10:37:48;5.93;;;4.05;;
85196;SDS011;75566;42.698;23.346;2024-02-23T10:42:46;8.82;;;3.60;;
85196;SDS011;75566;42.698;23.346;2024-02-23T10:45:20;3.03;;;2.75;;
85196;SDS011;75566;42.698;23.346;2024-02-23T10:47:50;3.08;;;2.15;;
85196;SDS011;75566;42.698;23.346;2024-02-23T10:50:17;3.08;;;2.63;;
85196;SDS011;75566;42.698;23.346;2024-02-23T10:52:44;2.78;;;2.58;;
85196;SDS011;75566;42.698;23.346;2024-02-23T10:55:12;4.32;;;2.22;;
85196;SDS011;75566;42.698;23.346;2024-02-23T10:57:39;2.40;;;2.20;;
85196;SDS011;75566;42.698;23.346;2024-02-23T11:00:05;2.28;;;2.08;;
85196;SDS011;75566;42.698;23.346;2024-02-23T11:02:35;3.35;;;2.13;;
85196;SDS011;75566;42.698;23.346;2024-02-23T11:05:08;4.53;;;2.13;;
85196;SDS011;75566;42.698;23.346;2024-02-23T11:07:40;2.88;;;2.28;;
85196;SDS011;75566;42.698;23.346;2024-02-23T11:10:06;3.22;;;2.92;;
85196;SDS011;75566;42.698;23.346;2024-02-23T11:12:34;2.63;;;2.42;;
85196;SDS011;75566;42.698;23.346;2024-02-23T11:15:00;2.20;;;2.00;;
85196;SDS011;75566;42.698;23.346;2024-02-23T11:17:27;2.60;;;2.22;;
85196;SDS011;75566;42.698;23.346;2024-02-23T11:19:54;2.42;;;2.17;;
85196;SDS011;75566;42.698;23.346;2024-02-23T11:22:25;1.95;;;1.85;;
85196;SDS011;75566;42.698;23.346;2024-02-23T11:24:51;3.35;;;2.25;;
85196;SDS011;75566;42.698;23.346;2024-02-23T11:27:17;2.08;;;1.88;;
85196;SDS011;75566;42.698;23.346;2024-02-23T11:29:44;2.65;;;2.45;;
85196;SDS011;75566;42.698;23.346;2024-02-23T11:32:14;2.15;;;1.90;;
85196;SDS011;75566;42.698;23.346;2024-02-23T11:34:55;3.05;;;2.08;;
85196;SDS011;75566;42.698;23.346;2024-02-23T11:37:21;2.97;;;1.92;;
85196;SDS011;75566;42.698;23.346;2024-02-23T11:39:47;2.25;;;1.83;;
85196;SDS011;75566;42.698;23.346;2024-02-23T11:42:14;2.35;;;2.15;;
85196;SDS011;75566;42.698;23.346;2024-02-23T11:44:40;2.25;;;1.70;;
85196;SDS011;75566;42.698;23.346;2024-02-23T11:47:06;2.55;;;1.90;;
85196;SDS011;75566;42.698;23.346;2024-02-23T11:49:32;2.05;;;1.95;;
85196;SDS011;75566;42.698;23.346;2024-02-23T11:51:58;1.98;;;1.88;;
85196;SDS011;75566;42.698;23.346;2024-02-23T11:54:24;2.30;;;2.10;;
85196;SDS011;75566;42.698;23.346;2024-02-23T11:56:49;3.60;;;1.90;;
85196;SDS011;75566;42.698;23.346;2024-02-23T11:59:17;2.03;;;1.83;;
85196;SDS011;75566;42.698;23.346;2024-02-23T12:01:46;2.72;;;2.53;;
85196;SDS011;75566;42.698;23.346;2024-02-23T12:04:15;2.50;;;1.90;;
85196;SDS011;75566;42.698;23.346;2024-02-23T12:06:41;2.63;;;2.35;;
85196;SDS011;75566;42.698;23.346;2024-02-23T12:09:07;2.30;;;2.10;;
85196;SDS011;75566;42.698;23.346;2024-02-23T12:11:33;2.58;;;2.38;;
85196;SDS011;75566;42.698;23.346;2024-02-23T12:14:00;4.65;;;2.58;;
85196;SDS011;75566;42.698;23.346;2024-02-23T12:16:33;1.65;;;1.55;;
85196;SDS011;75566;42.698;23.346;2024-02-23T12:19:00;1.83;;;1.70;;
85196;SDS011;75566;42.698;23.346;2024-02-23T12:21:26;3.22;;;2.10;;
85196;SDS011;75566;42.698;23.346;2024-02-23T12:23:51;2.30;;;2.08;;
85196;SDS011;75566;42.698;23.346;2024-02-23T12:26:18;1.98;;;1.83;;
85196;SDS011;75566;42.698;23.346;2024-02-23T12:28:44;3.17;;;2.08;;
85196;SDS011;75566;42.698;23.346;2024-02-23T12:31:10;2.42;;;2.03;;
85196;SDS011;75566;42.698;23.346;2024-02-23T12:33:40;1.83;;;1.73;;
85196;SDS011;75566;42.698;23.346;2024-02-23T12:36:06;2.40;;;2.00;;
85196;SDS011;75566;42.698;23.346;2024-02-23T12:38:32;2.55;;;2.35;;
85196;SDS011;75566;42.698;23.346;2024-02-23T12:40:59;2.45;;;2.25;;
85196;SDS011;75566;42.698;23.346;2024-02-23T12:43:26;2.90;;;2.60;;
85196;SDS011;75566;42.698;23.346;2024-02-23T12:45:53;4.05;;;2.10;;
85196;SDS011;75566;42.698;23.346;2024-02-23T12:48:19;2.85;;;2.60;;
85196;SDS011;75566;42.698;23.346;2024-02-23T12:50:46;2.47;;;2.00;;
85196;SDS011;75566;42.698;23.346;2024-02-23T12:53:34;2.33;;;1.95;;
85196;SDS011;75566;42.698;23.346;2024-02-23T12:55:59;2.22;;;2.03;;
85196;SDS011;75566;42.698;23.346;2024-02-23T12:58:26;2.42;;;2.22;;
85196;SDS011;75566;42.698;23.346;2024-02-23T13:00:51;1.98;;;1.75;;
85196;SDS011;75566;42.698;23.346;2024-02-23T13:03:17;2.90;;;2.30;;
85196;SDS011;75566;42.698;23.346;2024-02-23T13:05:42;2.28;;;2.08;;
85196;SDS011;75566;42.698;23.346;2024-02-23T13:08:08;2.05;;;1.85;;
85196;SDS011;75566;42.698;23.346;2024-02-23T13:10:33;3.85;;;1.83;;
85196;SDS011;75566;42.698;23.346;2024-02-23T13:13:00;2.17;;;1.80;;
85196;SDS011;75566;42.698;23.346;2024-02-23T13:15:26;2.40;;;2.05;;
85196;SDS011;75566;42.698;23.346;2024-02-23T13:17:51;2.28;;;2.08;;
85196;SDS011;75566;42.698;23.346;2024-02-23T13:20:17;3.47;;;2.53;;
85196;SDS011;75566;42.698;23.346;2024-02-23T13:22:42;3.97;;;2.42;;
85196;SDS011;75566;42.698;23.346;2024-02-23T13:25:08;3.65;;;2.58;;
85196;SDS011;75566;42.698;23.346;2024-02-23T13:27:33;5.85;;;3.50;;
85196;SDS011;75566;42.698;23.346;2024-02-23T13:29:58;2.88;;;2.17;;
85196;SDS011;75566;42.698;23.346;2024-02-23T13:32:24;3.47;;;2.13;;
85196;SDS011;75566;42.698;23.346;2024-02-23T13:34:49;3.60;;;2.58;;
85196;SDS011;75566;42.698;23.346;2024-02-23T13:37:17;4.38;;;3.08;;
85196;SDS011;75566;42.698;23.346;2024-02-23T13:39:43;3.05;;;2.05;;
85196;SDS011;75566;42.698;23.346;2024-02-23T13:42:09;2.80;;;2.60;;
85196;SDS011;75566;42.698;23.346;2024-02-23T13:44:35;3.38;;;2.25;;
85196;SDS011;75566;42.698;23.346;2024-02-23T13:47:01;3.05;;;2.53;;
85196;SDS011;75566;42.698;23.346;2024-02-23T13:49:27;3.85;;;1.88;;
85196;SDS011;75566;42.698;23.346;2024-02-23T13:51:53;1.88;;;1.77;;
85196;SDS011;75566;42.698;23.346;2024-02-23T13:54:20;2.15;;;2.05;;
85196;SDS011;75566;42.698;23.346;2024-02-23T13:56:45;5.05;;;2.92;;
85196;SDS011;75566;42.698;23.346;2024-02-23T13:59:12;5.30;;;3.05;;
85196;SDS011;75566;42.698;23.346;2024-02-23T14:01:38;5.00;;;2.10;;
85196;SDS011;75566;42.698;23.346;2024-02-23T14:04:07;2.47;;;2.28;;
85196;SDS011;75566;42.698;23.346;2024-02-23T14:06:33;3.53;;;2.30;;
85196;SDS011;75566;42.698;23.346;2024-02-23T14:08:58;2.78;;;2.20;;
85196;SDS011;75566;42.698;23.346;2024-02-23T14:11:24;2.45;;;1.88;;
85196;SDS011;75566;42.698;23.346;2024-02-23T14:13:50;3.45;;;2.08;;
85196;SDS011;75566;42.698;23.346;2024-02-23T14:16:16;2.47;;;2.28;;
85196;SDS011;75566;42.698;23.346;2024-02-23T14:18:42;2.05;;;1.65;;
85196;SDS011;75566;42.698;23.346;2024-02-23T14:21:09;2.42;;;2.22;;
85196;SDS011;75566;42.698;23.346;2024-02-23T14:23:35;2.83;;;2.60;;
85196;SDS011;75566;42.698;23.346;2024-02-23T14:26:01;4.38;;;1.80;;